»·PEaware :: VOZ424 KSAA-KTIF

VOZ424 :: KSAA-KTIF

FLIGHT INFORMATION

Flight Status: Arrived
Operator:
Virgin Blue Airlines
More flights by this operator :: More flights under this callsign
Pilot: Ben H. (9170)
Aircraft: AÉROSPATIALE ATR-72
(AT72)
More flights by this aircraft type
Origin: KSAA Shively
United States
Destination: KTIF Thomas Co
United States
More flights between these airports :: More routes between these airports
Route: OPPEE LAR V524 BFF V100 EFFEX UFVOD VEYNE FETSU
File this flight plan on PilotEdge
Remarks:
Altitude:
(Current/Filed)
19,000ft
Speed:
(Current/Filed)
240kts
Departed: 10-Jun-17 10:51 AM
Arrived: 10-Jun-17 11:57 AM
Distance/Time
Traveled:
282nm/1:06
Distance/Time
To Go:
Arrived

Flight Plot

Page will automatically refresh every two minutes.

Flight plan parsing failed; only flown route is shown


Map Options




Map Legend


Flown Route
Filed Route
Departure Airport
Arrival Airport
Navaid (VOR, NDB)
Fix

Horizontal Profiles

Position Reports

Time Latitude Longitude Heading Altitude Ground
Speed
10-Jun-17 10:26 41.444837 -106.808570 261 7018ft 0kts
10-Jun-17 10:27 41.444837 -106.808570 261 7018ft 0kts
10-Jun-17 10:28 41.444837 -106.808570 261 7018ft 0kts
10-Jun-17 10:29 41.444837 -106.808570 261 7018ft 0kts
10-Jun-17 10:30 41.444837 -106.808570 261 7018ft 0kts
10-Jun-17 10:31 41.444837 -106.808570 261 7018ft 0kts
10-Jun-17 10:32 41.444837 -106.808570 261 7018ft 0kts
10-Jun-17 10:33 41.444837 -106.808570 261 7018ft 0kts
10-Jun-17 10:34 41.444837 -106.808570 261 7018ft 0kts
10-Jun-17 10:35 41.444837 -106.808570 261 7018ft 0kts
10-Jun-17 10:36 41.444837 -106.808570 261 7018ft 0kts
10-Jun-17 10:37 41.444837 -106.808570 261 7018ft 0kts
10-Jun-17 10:38 41.444837 -106.808570 261 7018ft 0kts
10-Jun-17 10:39 41.444837 -106.808570 261 7018ft 0kts
10-Jun-17 10:40 41.444837 -106.808570 261 7018ft 0kts
10-Jun-17 10:41 41.444837 -106.808570 261 7018ft 0kts
10-Jun-17 10:42 41.444837 -106.808570 261 7018ft 0kts
10-Jun-17 10:43 41.444837 -106.808570 261 7018ft 0kts
10-Jun-17 10:44 41.444837 -106.808570 261 7018ft 0kts
10-Jun-17 10:45 41.444837 -106.808570 261 7018ft 0kts
10-Jun-17 10:46 41.444837 -106.808570 261 7018ft 0kts
10-Jun-17 10:47 41.444837 -106.808570 261 7018ft 0kts
10-Jun-17 10:48 41.444837 -106.808570 261 7018ft 0kts
10-Jun-17 10:49 41.445858 -106.809475 281 7018ft 2kts
10-Jun-17 10:50 41.446129 -106.811593 323 7018ft 10kts
10-Jun-17 10:51 41.447549 -106.812446 335 7018ft 0kts
10-Jun-17 10:52 41.447891 -106.812640 337 7018ft 10kts
10-Jun-17 10:53 41.446576 -106.818419 244 7019ft 89kts
10-Jun-17 10:54 41.448588 -106.865662 304 8116ft 178kts
10-Jun-17 10:55 41.499601 -106.889638 349 9880ft 208kts
10-Jun-17 10:56 41.564811 -106.903381 348 10093ft 281kts
10-Jun-17 10:57 41.629652 -106.913028 6 13270ft 209kts
10-Jun-17 10:58 41.671752 -106.860631 75 14882ft 223kts
10-Jun-17 10:59 41.658853 -106.783377 121 16517ft 220kts
10-Jun-17 11:00 41.628992 -106.705037 111 17787ft 243kts
10-Jun-17 11:01 41.598835 -106.621917 111 18922ft 271kts
10-Jun-17 11:02 41.562311 -106.522685 112 18925ft 316kts
10-Jun-17 11:03 41.522483 -106.414991 112 18920ft 331kts
10-Jun-17 11:04 41.481441 -106.303871 116 18930ft 332kts
10-Jun-17 11:05 41.447928 -106.194968 109 18913ft 323kts
10-Jun-17 11:06 41.421849 -106.082981 108 18905ft 320kts
10-Jun-17 11:07 41.395439 -105.969022 102 18932ft 324kts
10-Jun-17 11:08 41.369277 -105.855095 103 18936ft 326kts
10-Jun-17 11:09 41.345839 -105.738820 89 18936ft 321kts
10-Jun-17 11:10 41.365243 -105.628034 63 18936ft 308kts
10-Jun-17 11:11 41.395475 -105.521332 62 18937ft 308kts
10-Jun-17 11:12 41.426010 -105.414650 62 18937ft 308kts
10-Jun-17 11:13 41.456486 -105.307825 62 18937ft 309kts
10-Jun-17 11:14 41.486801 -105.201130 62 18937ft 309kts
10-Jun-17 11:15 41.517235 -105.093560 62 18803ft 311kts
10-Jun-17 11:16 41.547277 -104.986918 62 18813ft 309kts
10-Jun-17 11:17 41.576326 -104.883611 62 18887ft 308kts
10-Jun-17 11:18 41.606425 -104.777048 63 18843ft 311kts
10-Jun-17 11:19 41.633477 -104.666416 67 18805ft 313kts
10-Jun-17 11:20 41.658217 -104.556371 67 18785ft 313kts
10-Jun-17 11:21 41.683254 -104.444902 67 18781ft 313kts
10-Jun-17 11:22 41.708122 -104.333593 66 18780ft 312kts
10-Jun-17 11:23 41.732939 -104.221984 67 18781ft 312kts
10-Jun-17 11:24 41.757459 -104.111139 66 18781ft 312kts
10-Jun-17 11:25 41.782068 -103.999329 67 18782ft 313kts
10-Jun-17 11:26 41.806247 -103.888992 67 18806ft 313kts
10-Jun-17 11:27 41.830957 -103.777171 67 18805ft 313kts
10-Jun-17 11:28 41.855440 -103.664295 67 18806ft 316kts
10-Jun-17 11:29 41.879841 -103.551065 67 18805ft 316kts
10-Jun-17 11:30 41.904874 -103.438561 66 18806ft 316kts
10-Jun-17 11:31 41.931629 -103.326594 65 18806ft 315kts
10-Jun-17 11:32 41.958399 -103.214775 65 18806ft 315kts
10-Jun-17 11:33 41.985136 -103.102315 65 18807ft 316kts
10-Jun-17 11:34 42.011895 -102.989478 65 18807ft 316kts
10-Jun-17 11:35 42.038356 -102.877790 66 18803ft 316kts
10-Jun-17 11:36 42.063730 -102.764336 69 18801ft 318kts
10-Jun-17 11:37 42.086124 -102.649109 69 18803ft 318kts
10-Jun-17 11:38 42.108446 -102.534109 69 18804ft 319kts
10-Jun-17 11:39 42.130450 -102.419825 69 18759ft 295kts
10-Jun-17 11:40 42.151174 -102.311870 70 16696ft 321kts
10-Jun-17 11:41 42.173167 -102.195974 70 15577ft 318kts
10-Jun-17 11:42 42.194857 -102.081582 70 14452ft 315kts
10-Jun-17 11:43 42.216190 -101.968464 70 13420ft 312kts
10-Jun-17 11:44 42.237577 -101.855616 71 12266ft 316kts
10-Jun-17 11:45 42.258591 -101.743726 71 11525ft 306kts
10-Jun-17 11:46 42.279091 -101.633146 71 10974ft 303kts
10-Jun-17 11:47 42.299370 -101.523000 72 10970ft 304kts
10-Jun-17 11:48 42.319725 -101.411835 72 10970ft 306kts
10-Jun-17 11:49 42.312492 -101.298868 118 10967ft 312kts
10-Jun-17 11:50 42.263908 -101.202358 127 10971ft 311kts
10-Jun-17 11:51 42.214174 -101.106272 126 10969ft 310kts
10-Jun-17 11:52 42.165693 -101.012851 127 10971ft 302kts
10-Jun-17 11:53 42.117662 -100.920607 127 10973ft 300kts
10-Jun-17 11:54 42.070191 -100.828952 127 10967ft 299kts
10-Jun-17 11:55 42.031636 -100.740967 118 9912ft 254kts
10-Jun-17 11:56 42.005536 -100.672510 108 8435ft 202kts
10-Jun-17 11:57 41.981452 -100.616167 110 5138ft 169kts
10-Jun-17 11:58 41.961771 -100.567959 119 2932ft 74kts
10-Jun-17 11:59 41.959956 -100.563186 49 2932ft 3kts
10-Jun-17 12:00 41.961024 -100.566163 297 2932ft 33kts
10-Jun-17 12:01 41.963513 -100.567736 309 2932ft 4kts
10-Jun-17 12:02 41.963690 -100.568051 336 2932ft 0kts
10-Jun-17 12:03 41.963690 -100.568051 336 2932ft 0kts

Navigation Log

Ident Type
Flight plan parsing failed, navigation log unavailable